createdAt,value
2019-03-01T00:00:21.866Z,86.80
2019-03-01T00:02:50.654Z,86.00
2019-03-01T00:05:25.215Z,85.90
2019-03-01T00:08:13.942Z,85.80
2019-03-01T00:10:48.300Z,85.60
2019-03-01T00:13:53.606Z,85.30
2019-03-01T00:16:37.644Z,85.60
2019-03-01T00:19:28.861Z,84.50
2019-03-01T00:22:15.764Z,85.20
2019-03-01T00:25:04.196Z,85.70
2019-03-01T00:28:00.085Z,86.10
2019-03-01T00:30:47.243Z,86.10
2019-03-01T00:33:31.076Z,86.70
2019-03-01T00:36:08.355Z,85.90
2019-03-01T00:38:58.518Z,86.50
2019-03-01T00:41:39.176Z,85.90
2019-03-01T00:44:34.582Z,86.00
2019-03-01T00:47:03.375Z,86.00
2019-03-01T00:49:32.524Z,86.40
2019-03-01T00:52:01.335Z,85.90
2019-03-01T00:54:30.079Z,84.70
2019-03-01T00:56:58.835Z,84.50
2019-03-01T00:59:27.684Z,84.00
2019-03-01T01:01:56.523Z,83.70
2019-03-01T01:04:25.440Z,82.80
2019-03-01T01:06:54.215Z,82.20
2019-03-01T01:09:23.013Z,82.20
2019-03-01T01:11:51.704Z,82.90
2019-03-01T01:14:20.704Z,83.00
2019-03-01T01:16:49.502Z,82.80
2019-03-01T01:19:18.352Z,82.40
2019-03-01T01:21:47.138Z,82.40
2019-03-01T01:24:15.935Z,81.90
2019-03-01T01:26:44.760Z,81.40
2019-03-01T01:29:13.567Z,81.80
2019-03-01T01:35:23.167Z,82.70
2019-03-01T01:37:51.893Z,81.30
2019-03-01T01:40:20.651Z,81.30
2019-03-01T01:42:49.449Z,81.20
2019-03-01T01:45:18.357Z,81.70
2019-03-01T01:47:47.362Z,80.50
2019-03-01T01:50:16.159Z,79.60
2019-03-01T01:52:44.901Z,79.30
2019-03-01T01:55:13.841Z,78.70
2019-03-01T01:57:42.690Z,77.50
2019-03-01T02:00:13.557Z,76.80
2019-03-01T02:02:42.465Z,76.60
2019-03-01T02:05:11.676Z,77.20
2019-03-01T02:07:40.517Z,75.90
2019-03-01T02:10:10.177Z,77.10
2019-03-01T02:12:39.174Z,77.90
2019-03-01T02:15:12.571Z,78.20
2019-03-01T02:17:41.357Z,79.00
2019-03-01T02:20:12.005Z,81.10
2019-03-01T02:22:40.772Z,82.60
2019-03-01T02:25:12.017Z,84.20
2019-03-01T02:27:40.874Z,84.90
2019-03-01T02:30:12.663Z,85.80
2019-03-01T02:32:43.618Z,86.40
2019-03-01T02:35:14.580Z,85.80
2019-03-01T02:37:43.349Z,85.60
2019-03-01T02:40:14.491Z,85.10
2019-03-01T02:42:43.490Z,85.20
2019-03-01T02:45:16.987Z,84.20
2019-03-01T02:47:45.811Z,83.60
2019-03-01T02:50:16.671Z,83.60
2019-03-01T02:52:45.542Z,84.50
2019-03-01T02:55:19.749Z,83.20
2019-03-01T02:57:48.739Z,83.10
2019-03-01T03:00:27.873Z,83.00
2019-03-01T03:02:56.651Z,83.20
2019-03-01T03:05:25.506Z,83.30
2019-03-01T03:07:55.976Z,82.60
2019-03-01T03:10:24.791Z,82.20
2019-03-01T03:12:56.223Z,82.00
2019-03-01T03:15:38.801Z,82.70
2019-03-01T03:18:07.622Z,82.50
2019-03-01T03:20:36.433Z,82.90
2019-03-01T03:23:05.233Z,82.20
2019-03-01T03:25:33.994Z,81.70
2019-03-01T03:28:02.881Z,81.80
2019-03-01T03:30:31.713Z,81.00
2019-03-01T03:33:00.474Z,80.00
2019-03-01T03:35:29.330Z,80.00
2019-03-01T03:37:58.148Z,79.50
2019-03-01T03:40:27.044Z,80.00
2019-03-01T03:42:55.785Z,79.50
2019-03-01T03:45:24.579Z,79.40
2019-03-01T03:47:53.356Z,79.10
2019-03-01T03:50:22.243Z,79.40
2019-03-01T03:52:51.144Z,81.50
2019-03-01T03:55:20.310Z,83.70
2019-03-01T03:57:49.155Z,84.20
2019-03-01T04:00:23.146Z,85.50
2019-03-01T04:02:51.217Z,84.50
2019-03-01T04:05:20.327Z,85.00
2019-03-01T04:07:49.169Z,84.30
2019-03-01T04:10:18.119Z,82.70
2019-03-01T04:12:47.012Z,82.20
2019-03-01T04:15:16.976Z,82.50
2019-03-01T04:17:46.028Z,84.40
2019-03-01T04:20:17.991Z,84.80
2019-03-01T04:22:46.987Z,84.90
2019-03-01T04:25:15.986Z,87.50
2019-03-01T04:27:44.984Z,86.90
2019-03-01T04:30:16.094Z,86.00
2019-03-01T04:32:45.216Z,83.40
2019-03-01T04:35:15.153Z,82.50
2019-03-01T04:37:45.719Z,81.50
2019-03-01T04:40:15.522Z,80.00
2019-03-01T04:42:44.586Z,79.70
2019-03-01T04:45:15.232Z,79.80
2019-03-01T04:47:44.076Z,79.50
2019-03-01T04:50:13.150Z,79.00
2019-03-01T04:52:42.175Z,78.30
2019-03-01T04:55:13.315Z,77.90
2019-03-01T04:57:42.158Z,77.30
2019-03-01T05:00:16.263Z,75.30
2019-03-01T05:02:45.009Z,75.70
2019-03-01T05:05:14.254Z,73.90
2019-03-01T05:07:43.261Z,73.00
2019-03-01T05:10:13.394Z,72.40
2019-03-01T05:12:42.211Z,71.80
2019-03-01T05:15:16.642Z,71.30
2019-03-01T05:17:45.593Z,71.30
2019-03-01T05:20:14.680Z,71.70
2019-03-01T05:22:43.516Z,71.30
2019-03-01T05:25:12.501Z,71.80
2019-03-01T05:27:41.274Z,70.90
2019-03-01T05:30:17.909Z,70.40
2019-03-01T05:32:46.705Z,69.60
2019-03-01T05:35:15.476Z,68.90
2019-03-01T05:37:44.296Z,66.00
2019-03-01T05:40:14.434Z,63.90
2019-03-01T05:42:43.259Z,62.60
2019-03-01T05:45:14.956Z,61.30
2019-03-01T05:47:43.735Z,61.60
2019-03-01T05:50:14.420Z,61.00
2019-03-01T05:52:43.321Z,60.20
2019-03-01T05:55:13.131Z,59.90
2019-03-01T05:58:04.308Z,60.20
2019-03-01T06:00:33.067Z,60.40
2019-03-01T06:03:13.785Z,61.90
2019-03-01T06:05:42.664Z,60.90
2019-03-01T06:08:17.081Z,61.50
2019-03-01T06:10:50.680Z,61.10
2019-03-01T06:13:37.484Z,61.60
2019-03-01T06:16:18.360Z,61.30
2019-03-01T06:19:07.949Z,61.80
2019-03-01T06:21:48.551Z,61.30
2019-03-01T06:24:41.588Z,60.70
2019-03-01T06:27:32.909Z,59.60
2019-03-01T06:30:16.663Z,57.30
2019-03-01T06:33:12.403Z,54.10
2019-03-01T06:35:47.090Z,51.90
2019-03-01T06:38:55.132Z,49.30
2019-03-01T06:41:51.010Z,43.40
2019-03-01T06:44:25.744Z,37.80
2019-03-01T06:47:14.031Z,35.90
2019-03-01T06:49:53.347Z,38.10
2019-03-01T06:52:23.573Z,41.50
2019-03-01T06:54:52.353Z,44.60
2019-03-01T06:57:21.377Z,46.40
2019-03-01T06:59:50.339Z,48.00
2019-03-01T07:02:23.594Z,49.90
2019-03-01T07:04:52.526Z,53.70
2019-03-01T07:07:21.317Z,55.70
2019-03-01T07:09:50.069Z,56.80
2019-03-01T07:12:18.941Z,55.40
2019-03-01T07:14:47.701Z,55.60
2019-03-01T07:17:16.506Z,55.90
2019-03-01T07:19:45.513Z,56.80
2019-03-01T07:22:14.253Z,57.40
2019-03-01T07:24:43.071Z,56.80
2019-03-01T07:27:12.451Z,57.00
2019-03-01T07:29:41.360Z,57.10
2019-03-01T07:32:10.116Z,58.70
2019-03-01T07:34:38.941Z,62.20
2019-03-01T07:37:07.709Z,64.20
2019-03-01T07:39:36.451Z,65.20
2019-03-01T07:42:05.336Z,65.40
2019-03-01T07:44:34.024Z,65.40
2019-03-01T07:47:02.777Z,69.80
2019-03-01T07:49:31.634Z,71.10
2019-03-01T07:52:01.750Z,71.10
2019-03-01T07:54:30.885Z,69.10
2019-03-01T07:56:59.752Z,69.40
2019-03-01T07:59:33.383Z,66.60
2019-03-01T08:02:00.797Z,64.00
2019-03-01T08:04:29.715Z,62.90
2019-03-01T08:06:58.604Z,62.20
2019-03-01T08:09:27.401Z,62.20
2019-03-01T08:11:56.373Z,65.20
2019-03-01T08:14:28.059Z,67.90
2019-03-01T08:16:56.118Z,67.20
2019-03-01T08:19:25.610Z,67.50
2019-03-01T08:21:54.441Z,64.40
2019-03-01T08:24:23.229Z,63.80
2019-03-01T08:26:51.988Z,62.30
2019-03-01T08:29:20.776Z,61.10
2019-03-01T08:31:52.726Z,57.80
2019-03-01T08:34:20.110Z,57.50
2019-03-01T08:36:49.000Z,55.90
2019-03-01T08:39:17.736Z,54.50
2019-03-01T08:41:46.566Z,54.90
2019-03-01T08:44:15.346Z,54.50
2019-03-01T08:46:45.570Z,55.00
2019-03-01T08:49:14.689Z,54.90
2019-03-01T08:51:43.493Z,56.20
2019-03-01T08:54:12.351Z,57.00
2019-03-01T08:56:41.281Z,57.10
2019-03-01T08:59:10.181Z,56.40
2019-03-01T09:01:41.750Z,54.90
2019-03-01T09:04:14.266Z,55.00
2019-03-01T09:06:43.211Z,54.50
2019-03-01T09:09:12.020Z,56.20
2019-03-01T09:11:41.698Z,57.00
2019-03-01T09:14:11.324Z,56.70
2019-03-01T09:16:41.026Z,57.40
2019-03-01T09:19:10.089Z,57.80
2019-03-01T09:21:39.589Z,57.40
2019-03-01T09:24:08.601Z,56.90
2019-03-01T09:26:37.362Z,56.40
2019-03-01T09:29:06.148Z,56.50
2019-03-01T09:31:35.106Z,55.90
2019-03-01T09:34:05.987Z,55.80
2019-03-01T09:36:38.725Z,56.60
2019-03-01T09:39:09.230Z,67.00
2019-03-01T09:41:40.593Z,71.70
2019-03-01T09:44:08.476Z,78.90
2019-03-01T09:46:37.293Z,83.00
2019-03-01T09:49:06.138Z,83.40
2019-03-01T09:51:34.910Z,85.30
2019-03-01T09:54:06.546Z,85.70
2019-03-01T09:56:34.321Z,85.10
2019-03-01T09:59:03.054Z,82.80
2019-03-01T10:01:31.944Z,83.20
2019-03-01T10:04:00.755Z,82.70
2019-03-01T10:06:37.843Z,80.10
2019-03-01T10:09:00.031Z,77.60
2019-03-01T10:11:28.815Z,75.90
2019-03-01T10:13:57.623Z,69.10
2019-03-01T10:16:26.568Z,65.80
2019-03-01T10:18:55.334Z,60.20
2019-03-01T10:21:25.286Z,58.80
2019-03-01T10:23:54.200Z,59.50
2019-03-01T10:26:23.007Z,58.90
2019-03-01T10:28:51.815Z,59.10
2019-03-01T10:31:20.612Z,59.30
2019-03-01T10:33:49.416Z,57.00
2019-03-01T10:36:18.201Z,57.30
2019-03-01T10:38:47.102Z,58.50
2019-03-01T10:41:15.909Z,57.50
2019-03-01T10:43:44.704Z,57.90
2019-03-01T10:46:13.483Z,58.20
2019-03-01T10:48:42.298Z,56.40
2019-03-01T10:51:11.169Z,55.00
2019-03-01T10:53:39.984Z,54.10
2019-03-01T10:56:08.756Z,53.80
2019-03-01T10:58:37.722Z,51.10
2019-03-01T11:01:07.057Z,48.90
2019-03-01T11:03:35.847Z,48.70
2019-03-01T11:06:04.703Z,47.70
2019-03-01T11:08:33.536Z,46.20
2019-03-01T11:11:02.286Z,46.60
2019-03-01T11:13:31.087Z,46.00
2019-03-01T11:15:59.904Z,47.40
2019-03-01T11:18:28.748Z,48.80
2019-03-01T11:20:57.536Z,49.00
2019-03-01T11:23:26.560Z,48.70
2019-03-01T11:25:55.440Z,49.00
2019-03-01T11:28:24.323Z,49.00
2019-03-01T11:30:53.226Z,48.50
2019-03-01T11:33:22.102Z,48.30
2019-03-01T11:35:50.914Z,47.30
2019-03-01T11:38:19.788Z,47.70
2019-03-01T11:40:48.599Z,48.30
2019-03-01T11:43:17.594Z,47.40
2019-03-01T11:45:46.692Z,48.60
2019-03-01T11:48:15.592Z,49.20
2019-03-01T11:50:44.584Z,50.00
2019-03-01T11:53:13.687Z,51.10
2019-03-01T11:55:42.682Z,51.90
2019-03-01T11:58:11.685Z,52.20
2019-03-01T12:00:40.576Z,51.40
2019-03-01T12:03:09.310Z,51.20
2019-03-01T12:05:38.217Z,50.70
2019-03-01T12:08:06.998Z,51.50
2019-03-01T12:10:35.753Z,51.80
2019-03-01T12:13:04.534Z,51.40
2019-03-01T12:15:33.455Z,50.90
2019-03-01T12:18:02.333Z,51.40
2019-03-01T12:20:34.230Z,51.70
2019-03-01T12:23:03.055Z,51.50
2019-03-01T12:25:31.934Z,51.60
2019-03-01T12:28:00.731Z,51.50
2019-03-01T12:30:29.570Z,51.80
2019-03-01T12:32:58.354Z,52.00
2019-03-01T12:35:27.183Z,52.50
2019-03-01T12:37:56.227Z,53.40
2019-03-01T12:40:26.470Z,52.40
2019-03-01T12:42:55.329Z,51.30
2019-03-01T12:45:24.192Z,51.70
2019-03-01T12:47:53.102Z,51.50
2019-03-01T12:50:21.916Z,51.70
2019-03-01T12:52:50.818Z,51.20
2019-03-01T12:55:24.963Z,52.40
2019-03-01T12:57:53.744Z,52.80
2019-03-01T13:00:37.707Z,53.00
2019-03-01T13:03:09.123Z,53.80
2019-03-01T13:05:37.004Z,53.00
2019-03-01T13:08:05.832Z,53.00
2019-03-01T13:10:36.742Z,52.80
2019-03-01T13:13:08.376Z,52.20
2019-03-01T13:15:36.829Z,51.50
2019-03-01T13:18:05.642Z,51.30
2019-03-01T13:20:37.042Z,51.00
2019-03-01T13:23:06.246Z,51.60
2019-03-01T13:25:35.210Z,51.90
2019-03-01T13:28:04.227Z,52.10
2019-03-01T13:30:35.830Z,52.90
2019-03-01T13:33:03.728Z,53.00
2019-03-01T13:35:32.521Z,51.80
2019-03-01T13:38:01.354Z,51.20
2019-03-01T13:40:30.132Z,50.80
2019-03-01T13:42:58.895Z,50.70
2019-03-01T13:45:27.710Z,51.40
2019-03-01T13:47:56.516Z,51.60
2019-03-01T13:50:25.422Z,51.80
2019-03-01T13:52:54.510Z,51.30
2019-03-01T13:55:23.787Z,51.40
2019-03-01T13:57:52.860Z,51.70
2019-03-01T14:00:22.331Z,51.40
2019-03-01T14:02:51.301Z,51.40
2019-03-01T14:05:20.321Z,50.90
2019-03-01T14:07:55.341Z,51.90
2019-03-01T14:10:28.053Z,51.40
2019-03-01T14:12:56.868Z,51.60
2019-03-01T14:15:25.729Z,50.80
2019-03-01T14:17:57.613Z,51.00
2019-03-01T14:20:24.967Z,51.00
2019-03-01T14:22:53.741Z,51.80
2019-03-01T14:25:22.551Z,52.10
2019-03-01T14:27:52.870Z,52.20
2019-03-01T14:30:25.491Z,52.20
2019-03-01T14:32:57.546Z,51.80
2019-03-01T14:35:26.845Z,52.50
2019-03-01T14:37:56.016Z,53.60
2019-03-01T14:40:24.781Z,54.30
2019-03-01T14:42:53.695Z,54.60
2019-03-01T14:45:27.196Z,54.30
2019-03-01T14:47:56.297Z,54.60
2019-03-01T14:50:26.215Z,54.80
2019-03-01T14:52:58.487Z,54.60
2019-03-01T14:55:31.489Z,53.60
2019-03-01T14:58:15.496Z,53.40
2019-03-01T15:00:51.266Z,53.30
2019-03-01T15:03:34.110Z,54.60
2019-03-01T15:06:03.300Z,54.50
2019-03-01T15:08:35.253Z,54.20
2019-03-01T15:11:07.983Z,53.90
2019-03-01T15:13:37.749Z,54.10
2019-03-01T15:16:07.334Z,54.80
2019-03-01T15:18:37.106Z,54.60
2019-03-01T15:21:07.395Z,54.20
2019-03-01T15:23:36.246Z,54.90
2019-03-01T15:26:05.417Z,55.10
2019-03-01T15:28:45.442Z,55.60
2019-03-01T15:31:14.269Z,54.90
2019-03-01T15:33:46.445Z,54.70
2019-03-01T15:36:13.638Z,54.10
2019-03-01T15:38:44.151Z,53.70
2019-03-01T15:41:12.999Z,53.80
2019-03-01T15:43:41.872Z,54.20
2019-03-01T15:46:11.549Z,54.60
2019-03-01T15:48:41.119Z,54.20
2019-03-01T15:51:10.008Z,54.40
2019-03-01T15:53:38.893Z,54.80
2019-03-01T15:56:07.667Z,54.30
2019-03-01T15:58:36.544Z,54.70
2019-03-01T16:01:10.935Z,53.20
2019-03-01T16:03:38.427Z,53.30
2019-03-01T16:06:10.363Z,53.10
2019-03-01T16:08:37.778Z,53.60
2019-03-01T16:11:09.183Z,53.70
2019-03-01T16:13:37.515Z,54.20
2019-03-01T16:16:06.398Z,53.60
2019-03-01T16:18:38.507Z,53.80
2019-03-01T16:21:06.203Z,53.20
2019-03-01T16:23:35.044Z,53.20
2019-03-01T16:26:03.857Z,53.30
2019-03-01T16:28:32.895Z,53.10
2019-03-01T16:31:01.702Z,53.60
2019-03-01T16:33:30.504Z,54.10
2019-03-01T16:36:00.989Z,54.70
2019-03-01T16:38:30.015Z,54.40
2019-03-01T16:41:01.876Z,55.40
2019-03-01T16:43:29.660Z,54.80
2019-03-01T16:45:58.561Z,54.40
2019-03-01T16:48:27.450Z,53.90
2019-03-01T16:50:56.275Z,54.10
2019-03-01T16:53:25.084Z,53.60
2019-03-01T16:55:53.853Z,53.20
2019-03-01T16:58:24.477Z,52.80
2019-03-01T17:00:53.609Z,53.60
2019-03-01T17:03:23.105Z,53.40
2019-03-01T17:05:51.864Z,53.00
2019-03-01T17:08:20.719Z,53.50
2019-03-01T17:10:49.537Z,53.00
2019-03-01T17:13:19.894Z,53.30
2019-03-01T17:15:49.277Z,53.40
2019-03-01T17:18:18.088Z,53.40
2019-03-01T17:20:46.835Z,53.30
2019-03-01T17:23:16.675Z,52.80
2019-03-01T17:25:47.541Z,53.30
2019-03-01T17:28:16.382Z,53.90
2019-03-01T17:30:46.695Z,53.70
2019-03-01T17:33:16.875Z,53.60
2019-03-01T17:35:45.724Z,54.50
2019-03-01T17:38:14.573Z,54.00
2019-03-01T17:40:43.359Z,54.60
2019-03-01T17:43:12.208Z,54.30
2019-03-01T17:45:41.010Z,53.10
2019-03-01T17:48:09.852Z,52.80
2019-03-01T17:50:41.632Z,52.60
2019-03-01T17:53:09.568Z,52.60
2019-03-01T17:55:39.246Z,52.60
2019-03-01T17:58:08.854Z,53.50
2019-03-01T18:00:40.112Z,53.80
2019-03-01T18:03:08.892Z,53.70
2019-03-01T18:05:40.607Z,53.70
2019-03-01T18:08:08.232Z,54.30
2019-03-01T18:10:37.008Z,54.10
2019-03-01T18:13:05.867Z,54.20
2019-03-01T18:15:34.649Z,54.60
2019-03-01T18:18:03.480Z,54.60
2019-03-01T18:20:34.006Z,54.20
2019-03-01T18:23:03.166Z,54.80
2019-03-01T18:25:32.288Z,54.70
2019-03-01T18:28:01.078Z,55.30
2019-03-01T18:30:32.840Z,54.70
2019-03-01T18:33:01.625Z,55.00
2019-03-01T18:35:30.421Z,53.50
2019-03-01T18:37:59.199Z,53.30
2019-03-01T18:40:27.968Z,53.30
2019-03-01T18:42:56.846Z,53.20
2019-03-01T18:49:37.499Z,53.50
2019-03-01T18:52:06.346Z,53.40
2019-03-01T18:54:35.814Z,53.80
2019-03-01T18:57:05.605Z,54.50
2019-03-01T18:59:34.447Z,54.50
2019-03-01T19:02:03.261Z,54.20
2019-03-01T19:04:32.084Z,53.00
2019-03-01T19:07:00.910Z,53.50
2019-03-01T19:09:29.677Z,53.20
2019-03-01T19:11:58.602Z,53.50
2019-03-01T19:14:27.404Z,54.20
2019-03-01T19:16:56.262Z,54.10
2019-03-01T19:19:29.890Z,54.00
2019-03-01T19:21:55.562Z,53.60
2019-03-01T19:24:25.714Z,53.90
2019-03-01T19:26:56.033Z,54.00
2019-03-01T19:29:24.884Z,54.80
2019-03-01T19:31:53.781Z,54.00
2019-03-01T19:34:22.694Z,53.90
2019-03-01T19:36:51.557Z,53.80
2019-03-01T19:39:20.959Z,53.90
2019-03-01T19:41:49.859Z,53.70
2019-03-01T19:44:18.674Z,54.10
2019-03-01T19:46:47.706Z,54.30
2019-03-01T19:49:19.769Z,54.50
2019-03-01T19:51:48.709Z,54.50
2019-03-01T19:54:17.441Z,54.70
2019-03-01T19:56:46.371Z,54.90
2019-03-01T19:59:15.157Z,54.80
2019-03-01T20:01:44.052Z,54.20
2019-03-01T20:04:12.949Z,54.20
2019-03-01T20:06:43.455Z,53.80
2019-03-01T20:09:12.248Z,53.60
2019-03-01T20:11:41.062Z,53.40
2019-03-01T20:14:09.821Z,54.30
2019-03-01T20:16:38.563Z,54.00
2019-03-01T20:19:07.355Z,53.90
2019-03-01T20:21:36.158Z,53.70
2019-03-01T20:24:05.324Z,53.70
2019-03-01T20:26:35.444Z,53.90
2019-03-01T20:29:04.483Z,54.00
2019-03-01T20:31:33.269Z,54.10
2019-03-01T20:34:02.782Z,54.10
2019-03-01T20:36:31.819Z,54.50
2019-03-01T20:39:00.653Z,54.10
2019-03-01T20:41:29.476Z,53.90
2019-03-01T20:43:58.252Z,53.20
2019-03-01T20:46:27.033Z,53.80
2019-03-01T20:48:55.869Z,54.00
2019-03-01T20:51:26.990Z,54.10
2019-03-01T20:53:55.270Z,53.80
2019-03-01T20:56:24.108Z,53.60
2019-03-01T20:58:52.845Z,53.90
2019-03-01T21:01:21.625Z,54.40
2019-03-01T21:03:50.541Z,54.00
2019-03-01T21:06:19.830Z,53.80
2019-03-01T21:08:48.702Z,53.60
2019-03-01T21:11:17.593Z,53.70
2019-03-01T21:13:49.094Z,53.60
2019-03-01T21:16:16.936Z,53.80
2019-03-01T21:18:45.782Z,53.50
2019-03-01T21:21:14.564Z,53.60
2019-03-01T21:23:43.342Z,53.90
2019-03-01T21:26:15.610Z,53.30
2019-03-01T21:28:45.744Z,53.40
2019-03-01T21:31:14.563Z,53.30
2019-03-01T21:33:43.488Z,53.60
2019-03-01T21:36:12.405Z,53.60
2019-03-01T21:38:41.232Z,53.80
2019-03-01T21:41:11.079Z,54.70
2019-03-01T21:43:40.099Z,53.70
2019-03-01T21:46:08.883Z,53.90
2019-03-01T21:48:37.793Z,57.10
2019-03-01T21:51:06.897Z,54.30
2019-03-01T21:53:36.424Z,54.30
2019-03-01T21:56:08.536Z,56.30
2019-03-01T21:58:38.644Z,54.90
2019-03-01T22:01:07.279Z,53.70
2019-03-01T22:03:36.279Z,53.80
2019-03-01T22:06:05.069Z,53.40
2019-03-01T22:08:34.080Z,53.00
2019-03-01T22:11:03.200Z,53.20
2019-03-01T22:13:32.559Z,53.40
2019-03-01T22:16:02.588Z,53.30
2019-03-01T22:18:33.324Z,53.40
2019-03-01T22:21:02.018Z,53.00
2019-03-01T22:23:31.122Z,53.40
2019-03-01T22:26:00.221Z,53.50
2019-03-01T22:28:29.003Z,53.70
2019-03-01T22:31:00.312Z,52.60
2019-03-01T22:33:28.577Z,52.40
2019-03-01T22:35:57.738Z,52.20
2019-03-01T22:38:26.738Z,52.70
2019-03-01T22:40:55.637Z,52.90
2019-03-01T22:43:26.218Z,52.80
2019-03-01T22:46:01.100Z,53.00
2019-03-01T22:48:30.124Z,53.20
2019-03-01T22:50:58.867Z,53.30
2019-03-01T22:53:27.742Z,53.90
2019-03-01T22:55:57.928Z,53.50
2019-03-01T22:58:26.898Z,54.10
2019-03-01T23:01:03.266Z,54.20
2019-03-01T23:03:32.162Z,54.30
2019-03-01T23:06:00.956Z,53.80
2019-03-01T23:08:31.673Z,53.80
2019-03-01T23:11:00.284Z,53.80
2019-03-01T23:13:29.171Z,53.40
2019-03-01T23:15:58.166Z,53.40
2019-03-01T23:18:26.979Z,53.30
2019-03-01T23:20:57.622Z,52.80
2019-03-01T23:23:26.285Z,52.80
2019-03-01T23:25:55.187Z,52.80
2019-03-01T23:28:24.187Z,51.30
2019-03-01T23:30:53.029Z,51.70
2019-03-01T23:33:22.165Z,51.60
2019-03-01T23:35:53.048Z,51.90
2019-03-01T23:38:21.806Z,52.30
2019-03-01T23:40:50.596Z,52.40
2019-03-01T23:43:19.330Z,52.10
2019-03-01T23:45:49.935Z,52.50
2019-03-01T23:48:18.717Z,52.40
2019-03-01T23:50:47.559Z,52.40
2019-03-01T23:53:16.486Z,52.30
2019-03-01T23:55:45.255Z,52.80
2019-03-01T23:58:15.778Z,52.60
